Belmullet, Ireland

11:31 PM IST on July 28, 2016 (GMT +0100)
Connaught | | Change Station

Elev 663 ft 53.91 °N, 8.81 °W | Updated 2 hours ago

Light Rain
Light Rain Drizzle
57 °F
Feels Like 57 °F
N
9
Wind Variable Wind from West

Today
High -- | Low -- °F
--% Chance of Precip.
Yesterday
High -- | Low -- °F
Precip. -- in
Pressure 29.80 in
Visibility 3.1 miles
Clouds Mostly Cloudy 400 ft
Mostly Cloudy 1100 ft
Dew Point 57 °F
Humidity 100%
Rainfall 0.00 in
Snow Depth Not available.
5:46 AM 9:45 PM
Waning Crescent, 28% visible
METAR EIKN 282000Z 27008KT 5000 -RADZ BKN004 BKN011 14/14 Q1009 NOSIG
Pressure 29.80 in
Visibility 3.1 miles
Clouds Mostly Cloudy 400 ft
Mostly Cloudy 1100 ft
Dew Point 57 °F
Humidity 100%
Rainfall 0.00 in
Snow Depth Not available.
5:46 AM 9:45 PM
Waning Crescent, 28% visible
METAR EIKN 282000Z 27008KT 5000 -RADZ BKN004 BKN011 14/14 Q1009 NOSIG

10-Day Weather Forecast

×

Almanac

Astronomy

Jul. 28, 2016 Rise Set
Actual Time
Civil Twilight
Nautical Twilight
Astronomical Twilight
Moon
Length of Visible Light
Length of Day
Tomorrow will be .
, % of the Moon is Illuminated

Today's Extremes

Country Highs Country Lows

Community

WunderPhotos

Upload Photos

1,928,220 photos uploaded!

WunderBlog® & News

Nearby

Air Quality

  Air Quality AQ Index Pollutant
Not available.

Snow Depth

Station Depth Elevation

Earthquake Activity

City Distance Mag. Time & Date
Minimum magnitude displayed is 2.5.

Coastal Water Temperatures

Place Temperature

Stations

Nearby Weather Stations

Station Location Temp. Windchill Dew Point Humidity Wind Precip. Elev Updated Type